createdAt,value
2022-09-23T00:00:08.265Z,5.63
2022-09-23T00:02:36.865Z,5.65
2022-09-23T00:05:05.112Z,6.05
2022-09-23T00:07:32.900Z,5.50
2022-09-23T00:10:03.394Z,5.68
2022-09-23T00:12:31.444Z,6.40
2022-09-23T00:14:59.796Z,5.32
2022-09-23T00:17:27.712Z,5.72
2022-09-23T00:19:55.824Z,5.40
2022-09-23T00:22:23.789Z,6.07
2022-09-23T00:24:51.677Z,5.60
2022-09-23T00:27:21.642Z,5.53
2022-09-23T00:29:49.452Z,6.13
2022-09-23T00:32:18.705Z,5.93
2022-09-23T00:34:48.019Z,6.13
2022-09-23T00:37:16.765Z,5.40
2022-09-23T00:39:45.898Z,7.88
2022-09-23T00:42:16.513Z,5.85
2022-09-23T00:44:52.792Z,5.70
2022-09-23T00:50:02.065Z,5.85
2022-09-23T00:52:29.917Z,5.83
2022-09-23T00:54:57.919Z,5.80
2022-09-23T00:57:25.644Z,5.65
2022-09-23T00:59:53.430Z,5.55
2022-09-23T01:02:21.459Z,5.50
2022-09-23T01:04:50.727Z,5.55
2022-09-23T01:07:19.374Z,5.30
2022-09-23T01:09:48.346Z,5.13
2022-09-23T01:12:22.854Z,5.40
2022-09-23T01:15:04.243Z,5.85
2022-09-23T01:18:05.519Z,6.78
2022-09-23T01:20:57.190Z,6.13
2022-09-23T01:24:07.948Z,6.22
2022-09-23T01:26:51.443Z,6.55
2022-09-23T01:29:33.586Z,6.32
2022-09-23T01:32:26.909Z,6.80
2022-09-23T01:35:17.485Z,5.40
2022-09-23T01:38:06.620Z,6.50
2022-09-23T01:40:55.184Z,5.63
2022-09-23T01:43:24.651Z,6.25
2022-09-23T01:45:56.707Z,6.57
2022-09-23T01:48:47.349Z,6.22
2022-09-23T01:51:17.666Z,6.32
2022-09-23T01:54:08.044Z,5.72
2022-09-23T01:56:39.108Z,5.93
2022-09-23T01:59:14.869Z,6.00
2022-09-23T02:01:55.341Z,5.68
2022-09-23T02:04:51.607Z,12.13
2022-09-23T02:07:44.097Z,13.10
2022-09-23T02:10:15.530Z,9.32
2022-09-23T02:12:49.981Z,8.18
2022-09-23T02:15:23.774Z,7.28
2022-09-23T02:17:54.395Z,7.40
2022-09-23T02:20:40.323Z,6.43
2022-09-23T02:23:13.243Z,6.57
2022-09-23T02:25:41.432Z,5.57
2022-09-23T02:28:19.342Z,6.15
2022-09-23T02:30:49.820Z,5.95
2022-09-23T02:33:21.020Z,6.20
2022-09-23T02:35:56.256Z,5.07
2022-09-23T02:38:24.476Z,5.05
2022-09-23T02:41:15.197Z,5.60
2022-09-23T02:43:59.728Z,5.13
2022-09-23T02:46:27.803Z,5.35
2022-09-23T02:49:15.842Z,6.20
2022-09-23T02:51:43.633Z,5.35
2022-09-23T02:54:17.314Z,5.78
2022-09-23T02:56:49.624Z,5.28
2022-09-23T02:59:20.524Z,5.65
2022-09-23T03:02:08.168Z,5.75
2022-09-23T03:04:47.637Z,5.15
2022-09-23T03:07:41.001Z,5.03
2022-09-23T03:10:28.392Z,5.60
2022-09-23T03:13:35.386Z,6.03
2022-09-23T03:16:16.700Z,6.15
2022-09-23T03:18:56.134Z,5.30
2022-09-23T03:21:25.385Z,5.05
2022-09-23T03:23:54.757Z,5.45
2022-09-23T03:26:24.865Z,5.97
2022-09-23T03:28:54.126Z,6.28
2022-09-23T03:31:23.066Z,5.38
2022-09-23T03:33:52.795Z,5.00
2022-09-23T03:36:45.449Z,5.90
2022-09-23T03:39:46.497Z,5.80
2022-09-23T03:42:22.223Z,4.78
2022-09-23T03:44:54.133Z,5.03
2022-09-23T03:47:22.184Z,5.55
2022-09-23T03:49:50.664Z,4.97
2022-09-23T03:52:22.671Z,5.40
2022-09-23T03:54:52.267Z,5.35
2022-09-23T03:57:23.700Z,5.32
2022-09-23T03:59:51.764Z,6.72
2022-09-23T04:02:20.054Z,4.88
2022-09-23T04:04:49.401Z,5.22
2022-09-23T04:07:18.036Z,5.80
2022-09-23T04:09:46.003Z,5.20
2022-09-23T04:12:15.458Z,5.00
2022-09-23T04:14:43.552Z,4.55
2022-09-23T04:17:11.651Z,4.47
2022-09-23T04:19:39.499Z,5.30
2022-09-23T04:22:07.683Z,4.30
2022-09-23T04:24:35.517Z,5.75
2022-09-23T04:27:03.778Z,4.80
2022-09-23T04:29:32.208Z,5.32
2022-09-23T04:32:01.124Z,4.82
2022-09-23T04:34:29.051Z,5.10
2022-09-23T04:36:56.993Z,5.57
2022-09-23T04:39:24.979Z,5.03
2022-09-23T04:41:52.724Z,4.63
2022-09-23T04:44:21.420Z,5.07
2022-09-23T04:46:50.414Z,4.68
2022-09-23T04:49:18.687Z,5.10
2022-09-23T04:51:46.553Z,4.82
2022-09-23T04:54:15.233Z,4.93
2022-09-23T04:56:43.237Z,4.43
2022-09-23T04:59:11.206Z,4.65
2022-09-23T05:01:39.583Z,4.95
2022-09-23T05:04:10.332Z,4.38
2022-09-23T05:06:38.410Z,4.38
2022-09-23T05:09:07.451Z,4.47
2022-09-23T05:11:39.069Z,4.95
2022-09-23T05:14:08.308Z,4.57
2022-09-23T05:16:36.460Z,4.57
2022-09-23T05:19:05.695Z,4.45
2022-09-23T05:21:38.673Z,4.57
2022-09-23T05:24:06.842Z,4.00
2022-09-23T05:26:36.208Z,4.53
2022-09-23T05:29:04.154Z,4.20
2022-09-23T05:31:33.227Z,4.00
2022-09-23T05:34:02.670Z,4.30
2022-09-23T05:36:36.927Z,4.53
2022-09-23T05:39:08.858Z,4.72
2022-09-23T05:41:37.120Z,4.15
2022-09-23T05:48:42.272Z,3.95
2022-09-23T05:51:24.674Z,3.95
2022-09-23T05:53:57.823Z,3.70
2022-09-23T05:56:26.980Z,3.60
2022-09-23T05:58:55.938Z,3.25
2022-09-23T06:01:26.844Z,3.40
2022-09-23T06:03:56.300Z,3.45
2022-09-23T06:06:32.367Z,3.40
2022-09-23T06:09:03.895Z,3.28
2022-09-23T06:11:32.830Z,3.90
2022-09-23T06:14:01.376Z,3.60
2022-09-23T06:16:34.775Z,3.45
2022-09-23T06:19:08.813Z,3.15
2022-09-23T06:21:38.249Z,3.60
2022-09-23T06:24:06.891Z,3.30
2022-09-23T06:26:36.493Z,3.22
2022-09-23T06:29:08.792Z,3.20
2022-09-23T06:31:37.036Z,3.00
2022-09-23T06:34:11.525Z,2.60
2022-09-23T06:36:51.751Z,2.75
2022-09-23T06:39:20.203Z,2.65
2022-09-23T06:41:48.273Z,2.40
2022-09-23T06:44:17.303Z,2.25
2022-09-23T06:46:45.113Z,2.50
2022-09-23T06:49:15.004Z,1.98
2022-09-23T06:51:43.008Z,2.05
2022-09-23T06:54:11.251Z,2.22
2022-09-23T06:56:40.299Z,2.10
2022-09-23T06:59:10.707Z,2.40
2022-09-23T07:01:39.819Z,1.67
2022-09-23T07:04:12.071Z,1.85
2022-09-23T07:06:45.801Z,1.90
2022-09-23T07:09:14.058Z,1.65
2022-09-23T07:11:42.594Z,1.80
2022-09-23T07:14:14.896Z,1.30
2022-09-23T07:16:42.744Z,1.58
2022-09-23T07:19:12.525Z,1.70
2022-09-23T07:21:41.496Z,1.73
2022-09-23T07:24:10.398Z,1.83
2022-09-23T07:26:42.263Z,2.30
2022-09-23T07:29:15.798Z,1.67
2022-09-23T07:31:43.867Z,1.90
2022-09-23T07:34:11.991Z,1.88
2022-09-23T07:36:41.165Z,1.90
2022-09-23T07:39:12.048Z,1.48
2022-09-23T07:41:44.702Z,1.50
2022-09-23T07:44:13.069Z,1.20
2022-09-23T07:46:41.267Z,1.38
2022-09-23T07:49:09.829Z,1.35
2022-09-23T07:51:39.340Z,1.70
2022-09-23T07:54:12.756Z,1.65
2022-09-23T07:56:45.336Z,1.48
2022-09-23T07:59:17.862Z,1.38
2022-09-23T08:01:48.531Z,1.80
2022-09-23T08:04:20.134Z,1.42
2022-09-23T08:06:49.866Z,2.38
2022-09-23T08:09:18.699Z,1.70
2022-09-23T08:11:48.566Z,1.50
2022-09-23T08:14:18.033Z,1.38
2022-09-23T08:16:48.664Z,1.65
2022-09-23T08:19:16.740Z,1.02
2022-09-23T08:21:47.639Z,1.40
2022-09-23T08:24:17.467Z,1.35
2022-09-23T08:26:45.663Z,1.30
2022-09-23T08:29:14.718Z,1.35
2022-09-23T08:31:51.839Z,1.20
2022-09-23T08:34:21.452Z,1.38
2022-09-23T08:36:49.781Z,1.20
2022-09-23T08:39:18.605Z,1.30
2022-09-23T08:41:59.121Z,1.45
2022-09-23T08:44:47.992Z,1.40
2022-09-23T08:47:17.928Z,1.30
2022-09-23T08:50:03.107Z,1.58
2022-09-23T08:52:57.127Z,1.83
2022-09-23T08:55:46.948Z,1.35
2022-09-23T08:58:25.686Z,1.65
2022-09-23T09:01:19.442Z,1.70
2022-09-23T09:04:07.381Z,2.10
2022-09-23T09:07:00.136Z,1.90
2022-09-23T09:09:49.058Z,1.80
2022-09-23T09:12:44.060Z,1.80
2022-09-23T09:15:30.246Z,1.40
2022-09-23T09:18:08.093Z,1.77
2022-09-23T09:21:00.891Z,1.52
2022-09-23T09:23:39.433Z,1.70
2022-09-23T09:26:30.422Z,1.73
2022-09-23T09:29:34.260Z,1.98
2022-09-23T09:32:12.500Z,1.90
2022-09-23T09:34:54.827Z,2.00
2022-09-23T09:37:37.646Z,1.65
2022-09-23T09:40:06.646Z,2.22
2022-09-23T09:42:43.301Z,2.03
2022-09-23T09:45:35.132Z,2.85
2022-09-23T09:48:17.609Z,2.17
2022-09-23T09:50:52.286Z,1.88
2022-09-23T09:53:30.536Z,1.80
2022-09-23T09:56:11.364Z,1.67
2022-09-23T09:59:09.433Z,1.55
2022-09-23T10:01:40.257Z,1.60
2022-09-23T10:04:43.760Z,1.60
2022-09-23T10:07:14.416Z,1.75
2022-09-23T10:09:49.148Z,2.20
2022-09-23T10:12:19.274Z,2.65
2022-09-23T10:14:51.476Z,1.75
2022-09-23T10:17:33.563Z,1.80
2022-09-23T10:20:09.706Z,1.95
2022-09-23T10:22:42.591Z,1.70
2022-09-23T10:25:21.707Z,1.67
2022-09-23T10:27:50.517Z,1.80
2022-09-23T10:30:25.630Z,1.60
2022-09-23T10:32:56.653Z,1.80
2022-09-23T10:35:25.820Z,1.88
2022-09-23T10:37:59.982Z,1.73
2022-09-23T10:40:57.985Z,1.95
2022-09-23T10:43:50.816Z,1.65
2022-09-23T10:46:46.038Z,1.92
2022-09-23T10:49:35.787Z,1.73
2022-09-23T10:52:32.160Z,1.65
2022-09-23T10:55:21.372Z,1.80
2022-09-23T10:58:13.779Z,1.40
2022-09-23T11:00:46.475Z,1.20
2022-09-23T11:03:47.348Z,1.35
2022-09-23T11:06:55.935Z,1.30
2022-09-23T11:09:40.727Z,0.98
2022-09-23T11:12:41.851Z,0.93
2022-09-23T11:15:16.617Z,1.00
2022-09-23T11:21:28.295Z,0.95
2022-09-23T11:24:06.274Z,0.90
2022-09-23T11:26:48.377Z,1.00
2022-09-23T11:29:24.979Z,0.85
2022-09-23T11:32:10.452Z,0.82
2022-09-23T11:35:03.699Z,0.80
2022-09-23T11:37:37.445Z,0.93
2022-09-23T11:40:32.190Z,0.68
2022-09-23T11:43:02.853Z,0.70
2022-09-23T11:45:32.745Z,0.82
2022-09-23T11:48:22.503Z,1.05
2022-09-23T11:50:56.573Z,0.98
2022-09-23T11:53:38.300Z,1.92
2022-09-23T11:56:28.182Z,2.08
2022-09-23T11:59:13.241Z,1.67
2022-09-23T12:01:47.282Z,1.30
2022-09-23T12:04:35.890Z,1.33
2022-09-23T12:07:48.681Z,1.45
2022-09-23T12:10:17.743Z,1.70
2022-09-23T12:12:58.843Z,1.60
2022-09-23T12:15:50.804Z,2.00
2022-09-23T12:19:07.550Z,1.40
2022-09-23T12:21:50.733Z,1.73
2022-09-23T12:24:45.510Z,2.72
2022-09-23T12:27:29.785Z,2.22
2022-09-23T12:30:00.625Z,1.83
2022-09-23T12:32:29.028Z,1.65
2022-09-23T12:34:59.141Z,2.28
2022-09-23T12:37:38.227Z,2.00
2022-09-23T12:40:28.553Z,3.08
2022-09-23T12:42:56.808Z,2.45
2022-09-23T12:45:37.920Z,2.88
2022-09-23T12:48:26.743Z,2.42
2022-09-23T12:51:02.870Z,2.25
2022-09-23T12:56:16.885Z,3.53
2022-09-23T12:58:49.144Z,2.63
2022-09-23T13:01:20.342Z,2.55
2022-09-23T13:04:14.605Z,2.47
2022-09-23T13:07:15.037Z,2.58
2022-09-23T13:09:49.332Z,2.33
2022-09-23T13:12:33.279Z,2.30
2022-09-23T13:15:03.791Z,2.20
2022-09-23T13:17:38.714Z,2.42
2022-09-23T13:20:34.978Z,2.38
2022-09-23T13:23:16.487Z,2.20
2022-09-23T13:25:46.082Z,2.45
2022-09-23T13:28:37.410Z,2.47
2022-09-23T13:31:07.032Z,2.17
2022-09-23T13:33:46.826Z,2.70
2022-09-23T13:36:16.699Z,2.88
2022-09-23T13:38:46.810Z,3.10
2022-09-23T13:41:16.343Z,2.70
2022-09-23T13:43:45.131Z,2.78
2022-09-23T13:46:26.588Z,2.30
2022-09-23T13:48:54.837Z,2.50
2022-09-23T13:51:47.813Z,2.80
2022-09-23T13:54:31.209Z,2.80
2022-09-23T13:57:02.157Z,3.50
2022-09-23T14:00:24.748Z,3.25
2022-09-23T14:02:55.570Z,2.53
2022-09-23T14:05:27.336Z,2.95
2022-09-23T14:07:56.392Z,3.92
2022-09-23T14:10:27.928Z,3.92
2022-09-23T14:12:55.882Z,3.85
2022-09-23T14:15:23.704Z,3.35
2022-09-23T14:17:59.776Z,3.20
2022-09-23T14:20:27.904Z,2.97
2022-09-23T14:23:06.922Z,3.33
2022-09-23T14:25:35.770Z,7.05
2022-09-23T14:28:05.008Z,2.95
2022-09-23T14:30:33.022Z,2.55
2022-09-23T14:33:06.746Z,3.03
2022-09-23T14:38:34.740Z,3.05
2022-09-23T14:41:20.453Z,2.85
2022-09-23T14:44:33.845Z,3.10
2022-09-23T14:47:10.218Z,3.10
2022-09-23T14:50:07.554Z,3.03
2022-09-23T14:52:43.019Z,2.83
2022-09-23T14:55:16.209Z,2.78
2022-09-23T14:57:45.919Z,3.00
2022-09-23T15:00:21.864Z,2.70
2022-09-23T15:03:04.583Z,2.63
2022-09-23T15:05:41.030Z,2.92
2022-09-23T15:08:16.024Z,3.03
2022-09-23T15:10:46.389Z,2.75
2022-09-23T15:13:22.942Z,3.03
2022-09-23T15:15:53.555Z,3.60
2022-09-23T15:18:25.489Z,6.80
2022-09-23T15:21:05.348Z,4.07
2022-09-23T15:23:40.145Z,3.50
2022-09-23T15:26:20.468Z,4.00
2022-09-23T15:29:01.639Z,4.15
2022-09-23T15:31:40.174Z,3.80
2022-09-23T15:34:10.667Z,3.25
2022-09-23T15:36:41.138Z,3.30
2022-09-23T15:39:11.575Z,3.42
2022-09-23T15:41:48.198Z,3.45
2022-09-23T15:47:19.017Z,3.72
2022-09-23T15:49:47.785Z,3.88
2022-09-23T15:52:17.618Z,4.38
2022-09-23T15:54:46.495Z,4.78
2022-09-23T15:57:14.490Z,5.25
2022-09-23T15:59:45.152Z,4.65
2022-09-23T16:02:27.701Z,5.82
2022-09-23T16:04:57.586Z,4.65
2022-09-23T16:07:52.487Z,5.05
2022-09-23T16:10:22.036Z,5.40
2022-09-23T16:13:11.719Z,6.00
2022-09-23T16:15:44.072Z,6.95
2022-09-23T16:18:12.212Z,6.95
2022-09-23T16:20:42.366Z,8.00
2022-09-23T16:23:14.692Z,8.18
2022-09-23T16:25:45.088Z,8.23
2022-09-23T16:28:17.182Z,8.40
2022-09-23T16:30:45.900Z,7.60
2022-09-23T16:33:13.724Z,8.45
2022-09-23T16:35:42.155Z,8.82
2022-09-23T16:38:18.956Z,9.48
2022-09-23T16:40:47.428Z,9.27
2022-09-23T16:43:16.237Z,9.50
2022-09-23T16:45:45.843Z,9.93
2022-09-23T16:48:13.896Z,9.63
2022-09-23T16:50:44.256Z,9.48
2022-09-23T16:53:12.098Z,8.80
2022-09-23T16:55:43.961Z,8.88
2022-09-23T16:58:12.095Z,8.05
2022-09-23T17:00:58.720Z,9.00
2022-09-23T17:03:43.065Z,9.05
2022-09-23T17:06:14.013Z,8.80
2022-09-23T17:08:42.685Z,9.23
2022-09-23T17:11:11.065Z,8.05
2022-09-23T17:13:41.422Z,8.15
2022-09-23T17:16:12.000Z,7.25
2022-09-23T17:18:39.837Z,8.38
2022-09-23T17:21:08.830Z,10.35
2022-09-23T17:23:38.577Z,8.95
2022-09-23T17:26:09.856Z,8.75
2022-09-23T17:28:39.287Z,8.93
2022-09-23T17:31:13.981Z,8.43
2022-09-23T17:33:45.640Z,8.65
2022-09-23T17:36:16.237Z,9.20
2022-09-23T17:38:45.137Z,8.15
2022-09-23T17:41:13.344Z,8.48
2022-09-23T17:43:41.440Z,8.70
2022-09-23T17:46:12.351Z,8.98
2022-09-23T17:48:41.737Z,8.73
2022-09-23T17:51:16.850Z,9.00
2022-09-23T17:53:46.688Z,9.27
2022-09-23T17:56:21.097Z,8.88
2022-09-23T17:58:50.240Z,8.40
2022-09-23T18:01:42.628Z,8.48
2022-09-23T18:04:11.374Z,9.23
2022-09-23T18:06:40.326Z,9.63
2022-09-23T18:09:10.460Z,10.00
2022-09-23T18:11:41.017Z,9.82
2022-09-23T18:14:22.058Z,9.75
2022-09-23T18:16:52.495Z,11.07
2022-09-23T18:19:22.100Z,10.65
2022-09-23T18:21:52.378Z,9.98
2022-09-23T18:24:31.792Z,10.75
2022-09-23T18:27:06.518Z,11.18
2022-09-23T18:29:35.058Z,12.32
2022-09-23T18:32:04.377Z,14.30
2022-09-23T18:34:35.323Z,13.55
2022-09-23T18:37:11.488Z,13.13
2022-09-23T18:39:44.740Z,13.50
2022-09-23T18:42:13.783Z,12.68
2022-09-23T18:44:41.723Z,12.32
2022-09-23T18:47:31.303Z,11.13
2022-09-23T18:50:18.479Z,10.40
2022-09-23T18:52:49.100Z,9.73
2022-09-23T18:55:19.437Z,9.23
2022-09-23T18:57:56.680Z,9.60
2022-09-23T19:00:24.499Z,8.73
2022-09-23T19:02:53.426Z,8.73
2022-09-23T19:05:21.515Z,8.05
2022-09-23T19:07:49.489Z,8.50
2022-09-23T19:10:20.751Z,8.10
2022-09-23T19:12:49.449Z,8.65
2022-09-23T19:15:17.517Z,7.55
2022-09-23T19:17:49.307Z,7.32
2022-09-23T19:20:17.301Z,7.82
2022-09-23T19:22:47.440Z,7.65
2022-09-23T19:25:18.940Z,8.27
2022-09-23T19:27:49.514Z,7.43
2022-09-23T19:30:19.485Z,8.07
2022-09-23T19:32:48.323Z,7.65
2022-09-23T19:35:16.319Z,7.55
2022-09-23T19:37:46.573Z,7.53
2022-09-23T19:40:25.740Z,7.40
2022-09-23T19:42:54.256Z,6.80
2022-09-23T19:45:22.905Z,7.05
2022-09-23T19:48:06.407Z,7.30
2022-09-23T19:50:44.696Z,8.27
2022-09-23T19:53:13.567Z,7.18
2022-09-23T19:55:44.153Z,7.30
2022-09-23T19:58:25.822Z,7.38
2022-09-23T20:00:58.044Z,7.13
2022-09-23T20:03:32.501Z,6.85
2022-09-23T20:06:15.651Z,6.18
2022-09-23T20:08:45.593Z,7.10
2022-09-23T20:11:26.074Z,7.88
2022-09-23T20:14:05.060Z,6.38
2022-09-23T20:16:40.879Z,6.72
2022-09-23T20:19:10.264Z,7.38
2022-09-23T20:21:42.069Z,7.63
2022-09-23T20:24:12.072Z,6.60
2022-09-23T20:27:02.574Z,7.00
2022-09-23T20:29:31.320Z,6.85
2022-09-23T20:31:59.367Z,9.98
2022-09-23T20:34:36.363Z,6.78
2022-09-23T20:37:06.203Z,7.47
2022-09-23T20:39:35.919Z,7.03
2022-09-23T20:42:04.350Z,6.68
2022-09-23T20:44:33.132Z,6.53
2022-09-23T20:47:01.377Z,6.05
2022-09-23T20:49:33.449Z,7.43
2022-09-23T20:52:06.653Z,6.22
2022-09-23T20:54:34.773Z,7.68
2022-09-23T20:57:09.386Z,7.03
2022-09-23T20:59:40.916Z,7.43
2022-09-23T21:02:12.552Z,6.45
2022-09-23T21:04:41.421Z,7.45
2022-09-23T21:07:12.608Z,7.22
2022-09-23T21:09:43.003Z,5.88
2022-09-23T21:12:14.290Z,5.82
2022-09-23T21:14:42.580Z,5.70
2022-09-23T21:17:13.518Z,5.75
2022-09-23T21:19:42.503Z,6.50
2022-09-23T21:22:12.687Z,5.85
2022-09-23T21:27:33.012Z,4.82
2022-09-23T21:30:03.428Z,4.10
2022-09-23T21:32:33.893Z,3.63
2022-09-23T21:35:02.031Z,3.58
2022-09-23T21:37:39.695Z,3.53
2022-09-23T21:40:28.777Z,3.60
2022-09-23T21:43:00.426Z,3.25
2022-09-23T21:46:11.492Z,3.15
2022-09-23T21:48:41.702Z,3.30
2022-09-23T21:51:15.605Z,3.25
2022-09-23T21:53:45.146Z,3.65
2022-09-23T21:56:26.825Z,3.45
2022-09-23T21:58:56.018Z,3.30
2022-09-23T22:01:26.006Z,2.88
2022-09-23T22:03:56.004Z,2.78
2022-09-23T22:06:27.186Z,3.00
2022-09-23T22:09:01.857Z,2.80
2022-09-23T22:11:52.001Z,2.45
2022-09-23T22:14:21.178Z,2.60
2022-09-23T22:16:49.010Z,6.65
2022-09-23T22:19:18.329Z,2.90
2022-09-23T22:21:47.318Z,2.42
2022-09-23T22:24:17.841Z,2.72
2022-09-23T22:26:46.336Z,2.90
2022-09-23T22:29:34.125Z,2.88
2022-09-23T22:32:21.397Z,3.10
2022-09-23T22:34:50.930Z,2.35
2022-09-23T22:37:21.793Z,2.83
2022-09-23T22:39:50.415Z,2.92
2022-09-23T22:42:22.853Z,2.90
2022-09-23T22:44:51.546Z,2.28
2022-09-23T22:47:20.560Z,2.67
2022-09-23T22:49:48.712Z,3.05
2022-09-23T22:52:21.329Z,3.13
2022-09-23T22:54:49.332Z,2.80
2022-09-23T22:57:19.729Z,3.65
2022-09-23T22:59:50.853Z,3.38
2022-09-23T23:02:23.963Z,3.65
2022-09-23T23:04:52.785Z,3.20
2022-09-23T23:07:21.463Z,3.80
2022-09-23T23:10:31.616Z,3.28
2022-09-23T23:13:10.681Z,3.30
2022-09-23T23:15:39.932Z,3.30
2022-09-23T23:18:09.041Z,3.10
2022-09-23T23:21:01.010Z,3.15
2022-09-23T23:23:31.154Z,3.63
2022-09-23T23:25:59.254Z,3.20
2022-09-23T23:28:30.774Z,3.03
2022-09-23T23:31:09.267Z,2.60
2022-09-23T23:33:37.225Z,3.45
2022-09-23T23:36:08.273Z,2.83
2022-09-23T23:38:38.146Z,2.80
2022-09-23T23:41:07.197Z,3.03
2022-09-23T23:43:35.779Z,3.30
2022-09-23T23:46:03.667Z,2.90
2022-09-23T23:48:33.183Z,2.72
2022-09-23T23:51:01.712Z,3.13
2022-09-23T23:53:33.144Z,3.47
2022-09-23T23:56:06.981Z,2.72
2022-09-23T23:58:35.817Z,3.22
